Time;durP1;ratioP1;P1;durP2;ratioP2;P2;SDS_P1;SDS_P2;PMS_P1;PMS_P2;Temp;Humidity;BMP_temperature;BMP_pressure;BME280_temperature;BME280_humidity;BME280_pressure;Samples;Min_cycle;Max_cycle;Signal;HPM_P1;HPM_P2
2022/04/15 00:00:43;;;;;;;8.73;5.60;;;13.90;90.30;;;;;;5072820;28;20290;-90
2022/04/15 00:03:12;;;;;;;5.70;5.10;;;13.90;89.50;;;;;;5072984;28;20292;-89
2022/04/15 00:05:41;;;;;;;7.75;5.65;;;13.90;90.30;;;;;;5072878;28;20235;-89
2022/04/15 00:08:12;;;;;;;7.32;6.10;;;13.90;90.50;;;;;;5072805;28;20266;-89
2022/04/15 00:10:45;;;;;;;7.68;5.45;;;13.90;90.30;;;;;;5072251;28;20301;-89
2022/04/15 00:13:19;;;;;;;7.57;5.68;;;13.90;90.40;;;;;;5072321;28;20228;-89
2022/04/15 00:15:48;;;;;;;5.78;4.80;;;13.90;90.80;;;;;;5073015;28;20224;-89
2022/04/15 00:18:16;;;;;;;11.02;9.65;;;13.80;91.00;;;;;;5072711;28;20212;-89
2022/04/15 00:20:45;;;;;;;6.95;5.40;;;13.80;91.50;;;;;;5072285;28;20248;-89
2022/04/15 00:23:14;;;;;;;5.25;4.43;;;13.80;91.50;;;;;;5072444;28;20318;-89
2022/04/15 00:25:43;;;;;;;14.02;6.22;;;13.90;92.20;;;;;;5073121;28;20201;-89
2022/04/15 00:28:11;;;;;;;7.75;5.93;;;13.90;92.20;;;;;;5072807;28;20289;-89
2022/04/15 00:30:40;;;;;;;5.28;4.78;;;13.90;92.90;;;;;;5072657;28;20328;-89
2022/04/15 00:33:09;;;;;;;5.18;4.70;;;13.90;92.60;;;;;;5072207;28;20217;-89
2022/04/15 00:35:38;;;;;;;6.78;5.38;;;13.80;92.60;;;;;;5072669;28;20205;-89
2022/04/15 00:38:07;;;;;;;5.57;5.03;;;13.80;92.80;;;;;;5072500;28;20291;-89
2022/04/15 00:40:37;;;;;;;8.73;5.55;;;13.80;93.40;;;;;;5072209;28;20251;-89
2022/04/15 00:43:05;;;;;;;4.93;4.50;;;13.80;93.80;;;;;;5072848;28;20193;-89
2022/04/15 00:45:34;;;;;;;4.13;3.72;;;13.80;94.10;;;;;;5072475;28;20215;-89
2022/04/15 00:48:03;;;;;;;3.58;3.28;;;13.80;94.60;;;;;;5072516;28;20208;-89
2022/04/15 00:50:33;;;;;;;7.15;4.82;;;13.80;94.70;;;;;;5072344;28;20217;-89
2022/04/15 00:53:06;;;;;;;4.43;4.00;;;13.80;95.00;;;;;;5072345;28;20245;-89
2022/04/15 00:55:37;;;;;;;4.72;2.95;;;13.80;94.60;;;;;;5072785;28;20266;-89
2022/04/15 00:58:07;;;;;;;3.97;3.50;;;13.80;93.10;;;;;;5072356;28;20296;-89
2022/04/15 01:00:38;;;;;;;4.18;3.28;;;13.90;92.80;;;;;;5071966;28;20274;-90
2022/04/15 01:03:07;;;;;;;3.05;2.75;;;14.00;91.60;;;;;;5072230;28;20360;-89
2022/04/15 01:05:36;;;;;;;2.58;2.38;;;14.20;90.70;;;;;;5072333;28;20225;-89
2022/04/15 01:08:08;;;;;;;3.38;3.08;;;14.40;89.80;;;;;;5072396;28;20244;-89
2022/04/15 01:10:40;;;;;;;3.25;2.90;;;14.60;88.30;;;;;;5071861;28;20316;-89
2022/04/15 01:13:10;;;;;;;4.55;2.75;;;14.70;87.10;;;;;;5072177;28;20309;-89
2022/04/15 01:15:54;;;;;;;4.32;2.53;;;14.70;86.50;;;;;;5072641;28;20225;-89
2022/04/15 01:18:22;;;;;;;4.70;2.60;;;14.80;86.00;;;;;;5072387;28;20228;-89
2022/04/15 01:20:53;;;;;;;2.58;2.38;;;14.80;85.10;;;;;;5071762;28;20252;-89
2022/04/15 01:23:23;;;;;;;2.72;2.45;;;14.80;84.90;;;;;;5072584;28;20223;-89
2022/04/15 01:25:51;;;;;;;2.40;2.20;;;14.90;84.30;;;;;;5075971;28;20297;-89
2022/04/15 01:28:20;;;;;;;3.63;2.88;;;14.90;84.10;;;;;;5075722;28;20293;-89
2022/04/15 01:30:49;;;;;;;2.83;2.63;;;14.90;83.90;;;;;;5075401;28;20263;-89
2022/04/15 01:33:18;;;;;;;5.93;3.15;;;14.90;83.80;;;;;;5075602;28;20251;-89
2022/04/15 01:35:49;;;;;;;2.60;2.40;;;14.90;83.80;;;;;;5076215;28;20262;-89
2022/04/15 01:38:19;;;;;;;2.60;2.40;;;14.90;83.60;;;;;;5075932;28;20205;-89
2022/04/15 01:40:48;;;;;;;2.35;2.15;;;14.80;83.60;;;;;;5075235;28;20225;-89
2022/04/15 01:43:17;;;;;;;4.85;3.20;;;14.80;83.40;;;;;;5075437;28;20288;-89
2022/04/15 01:45:45;;;;;;;3.25;2.95;;;14.90;83.50;;;;;;5075500;28;20243;-89
2022/04/15 01:48:14;;;;;;;3.42;3.13;;;14.90;83.60;;;;;;5075158;28;20262;-89
2022/04/15 01:50:42;;;;;;;5.05;2.85;;;14.80;83.90;;;;;;5075153;28;20217;-89
2022/04/15 01:53:11;;;;;;;3.38;3.08;;;14.90;84.20;;;;;;5075241;28;20288;-89
2022/04/15 01:55:39;;;;;;;2.88;2.67;;;14.80;84.10;;;;;;5075436;28;20217;-89
2022/04/15 01:58:09;;;;;;;3.25;2.90;;;14.80;84.30;;;;;;5075328;28;20224;-89
2022/04/15 02:00:37;;;;;;;8.20;3.47;;;14.90;84.70;;;;;;5074850;28;20288;-89
2022/04/15 02:03:06;;;;;;;3.80;2.75;;;14.90;85.00;;;;;;5075132;28;20208;-89
2022/04/15 02:05:35;;;;;;;3.25;2.97;;;14.80;85.50;;;;;;5074904;28;20264;-89
2022/04/15 02:08:03;;;;;;;3.53;3.00;;;14.80;86.00;;;;;;5075227;28;20248;-89
2022/04/15 02:10:32;;;;;;;3.53;3.20;;;14.80;86.30;;;;;;5074728;28;20245;-89
2022/04/15 02:13:00;;;;;;;3.17;2.85;;;14.80;86.50;;;;;;5075103;28;20240;-88
2022/04/15 02:15:32;;;;;;;3.20;2.83;;;14.70;86.70;;;;;;5074949;28;20229;-89
2022/04/15 02:18:01;;;;;;;3.17;2.88;;;14.70;87.00;;;;;;5074992;28;20209;-89
2022/04/15 02:20:29;;;;;;;5.57;3.85;;;14.70;87.30;;;;;;5074351;28;20236;-89
2022/04/15 02:22:58;;;;;;;5.28;3.90;;;14.70;88.10;;;;;;5074682;28;20213;-88
2022/04/15 02:25:26;;;;;;;4.63;4.00;;;14.70;88.70;;;;;;5074668;28;20209;-89
2022/04/15 02:27:54;;;;;;;5.68;3.95;;;14.60;89.70;;;;;;5074813;28;20301;-89
2022/04/15 02:30:23;;;;;;;8.50;5.53;;;14.60;90.20;;;;;;5074600;28;20239;-88
2022/04/15 02:32:53;;;;;;;9.45;6.80;;;14.70;92.20;;;;;;5074850;28;20244;-89
2022/04/15 02:35:21;;;;;;;7.00;6.40;;;14.70;92.30;;;;;;5074323;28;20252;-89
2022/04/15 02:37:50;;;;;;;8.30;6.05;;;14.70;93.70;;;;;;5074519;28;20201;-88
2022/04/15 02:40:18;;;;;;;17.15;8.15;;;14.80;94.30;;;;;;5074411;28;20301;-88
2022/04/15 02:42:46;;;;;;;11.45;8.63;;;14.80;95.30;;;;;;5074555;28;20204;-89
2022/04/15 02:45:21;;;;;;;16.60;8.15;;;14.80;96.70;;;;;;5074491;28;20201;-89
2022/04/15 02:47:50;;;;;;;12.38;9.40;;;14.80;96.20;;;;;;5074254;28;20212;-89
2022/04/15 02:50:20;;;;;;;11.55;8.02;;;14.80;97.20;;;;;;5073974;28;20205;-88
2022/04/15 02:52:49;;;;;;;8.07;7.28;;;14.80;97.30;;;;;;5074606;28;20217;-88
2022/04/15 02:55:17;;;;;;;10.10;8.50;;;14.80;97.80;;;;;;5073784;28;20303;-89
2022/04/15 02:57:46;;;;;;;10.38;9.07;;;14.70;98.70;;;;;;5074228;28;20240;-89
2022/04/15 03:00:15;;;;;;;8.13;7.40;;;14.60;99.20;;;;;;5073702;28;20268;-89
2022/04/15 03:02:43;;;;;;;8.98;8.07;;;14.60;99.90;;;;;;5073733;28;20300;-89
2022/04/15 03:05:12;;;;;;;9.60;8.38;;;14.60;99.90;;;;;;5073590;28;20227;-89
2022/04/15 03:07:42;;;;;;;8.98;8.15;;;14.60;99.90;;;;;;5073756;28;20232;-89
2022/04/15 03:10:10;;;;;;;11.23;8.73;;;14.50;99.90;;;;;;5073602;28;20267;-89
2022/04/15 03:12:41;;;;;;;8.65;7.90;;;14.40;99.90;;;;;;5073736;28;20251;-89
2022/04/15 03:15:10;;;;;;;13.23;8.75;;;14.40;99.90;;;;;;5073322;28;20300;-88
2022/04/15 03:17:39;;;;;;;8.98;8.15;;;14.40;99.90;;;;;;5073631;28;20228;-89
2022/04/15 03:20:09;;;;;;;12.38;9.43;;;14.40;99.90;;;;;;5073679;28;20296;-89
2022/04/15 03:22:38;;;;;;;8.55;7.75;;;14.30;99.90;;;;;;5073946;28;20209;-88
2022/04/15 03:25:10;;;;;;;8.63;7.78;;;14.30;99.90;;;;;;5073649;28;20205;-89
2022/04/15 03:27:38;;;;;;;10.05;9.05;;;14.30;99.90;;;;;;5073515;28;20248;-88
2022/04/15 03:30:07;;;;;;;10.10;9.13;;;14.30;99.90;;;;;;5073650;28;20239;-88
2022/04/15 03:32:44;;;;;;;16.88;8.05;;;14.30;99.90;;;;;;5075009;28;20216;-88
2022/04/15 03:35:12;;;;;;;8.30;7.55;;;14.20;99.90;;;;;;5074546;28;20220;-88
2022/04/15 03:37:41;;;;;;;7.75;7.03;;;14.30;99.90;;;;;;5073577;28;20270;-89
2022/04/15 03:40:11;;;;;;;9.55;6.78;;;14.20;99.90;;;;;;5074391;28;20232;-88
2022/04/15 03:42:47;;;;;;;8.32;7.55;;;14.20;99.90;;;;;;5075064;28;20228;-88
2022/04/15 03:45:18;;;;;;;8.75;7.60;;;14.20;99.90;;;;;;5073996;28;20253;-88
2022/04/15 03:47:47;;;;;;;8.82;7.90;;;14.10;99.90;;;;;;5072940;28;20213;-89
2022/04/15 03:50:16;;;;;;;7.10;6.40;;;14.10;99.90;;;;;;5072766;28;20216;-89
2022/04/15 03:52:47;;;;;;;24.23;6.28;;;14.10;99.90;;;;;;5072873;28;20227;-88
2022/04/15 03:55:19;;;;;;;7.85;7.05;;;14.10;99.90;;;;;;5073251;28;20274;-88
2022/04/15 03:57:48;;;;;;;7.57;6.10;;;14.10;99.90;;;;;;5073569;28;20252;-88
2022/04/15 04:00:19;;;;;;;6.13;5.63;;;14.10;99.90;;;;;;5072783;28;20209;-89
2022/04/15 04:02:48;;;;;;;6.70;6.10;;;14.10;99.90;;;;;;5072893;28;20297;-88
2022/04/15 04:05:17;;;;;;;10.82;6.28;;;14.00;99.90;;;;;;5072770;28;20217;-89
2022/04/15 04:07:46;;;;;;;7.20;6.45;;;14.00;99.90;;;;;;5072837;28;20296;-89
2022/04/15 04:10:16;;;;;;;8.40;6.65;;;14.00;99.90;;;;;;5073004;28;20272;-88
2022/04/15 04:12:45;;;;;;;6.78;6.07;;;14.00;99.90;;;;;;5072984;28;20231;-88
2022/04/15 04:15:14;;;;;;;5.85;5.35;;;13.90;99.90;;;;;;5072829;28;20227;-88
2022/04/15 04:17:43;;;;;;;6.32;5.72;;;13.90;99.90;;;;;;5072714;28;20202;-88
2022/04/15 04:20:13;;;;;;;8.05;5.80;;;13.90;99.90;;;;;;5072378;28;20209;-89
2022/04/15 04:22:42;;;;;;;7.38;5.95;;;13.90;99.90;;;;;;5072708;28;20296;-88
2022/04/15 04:25:11;;;;;;;6.72;5.95;;;13.90;99.90;;;;;;5072807;28;20205;-88
2022/04/15 04:27:42;;;;;;;6.28;5.68;;;13.80;99.90;;;;;;5072618;28;20200;-88
2022/04/15 04:30:13;;;;;;;8.85;6.18;;;13.90;99.90;;;;;;5072139;28;20304;-88
2022/04/15 04:32:42;;;;;;;10.85;5.35;;;13.90;99.90;;;;;;5072421;28;20221;-88
2022/04/15 04:35:10;;;;;;;7.57;4.82;;;13.90;99.90;;;;;;5072540;28;20274;-88
2022/04/15 04:37:39;;;;;;;5.75;5.15;;;13.90;99.90;;;;;;5072666;28;20235;-88
2022/04/15 04:40:08;;;;;;;5.32;4.28;;;13.90;99.90;;;;;;5072286;28;20224;-88
2022/04/15 04:42:37;;;;;;;4.47;4.18;;;13.90;99.90;;;;;;5072342;28;20217;-88
2022/04/15 04:45:10;;;;;;;6.60;4.20;;;13.90;99.90;;;;;;5072204;28;20224;-89
2022/04/15 04:47:40;;;;;;;3.85;3.55;;;13.90;99.90;;;;;;5072731;28;20205;-88
2022/04/15 04:50:10;;;;;;;5.05;4.55;;;14.00;99.90;;;;;;5072419;28;20232;-89
2022/04/15 04:52:39;;;;;;;6.80;4.28;;;14.00;99.90;;;;;;5072339;28;20201;-88
2022/04/15 04:55:09;;;;;;;5.15;4.65;;;14.10;99.90;;;;;;5072749;28;20315;-88
2022/04/15 04:57:38;;;;;;;4.10;3.80;;;14.10;99.90;;;;;;5073009;28;20291;-88
2022/04/15 05:00:11;;;;;;;4.97;4.47;;;14.20;99.90;;;;;;5076109;28;20215;-88
2022/04/15 05:02:40;;;;;;;4.78;4.38;;;14.30;99.90;;;;;;5076301;28;20229;-88
2022/04/15 05:05:09;;;;;;;6.15;4.07;;;14.30;99.90;;;;;;5076291;28;20204;-88
2022/04/15 05:07:37;;;;;;;3.97;3.50;;;14.40;99.90;;;;;;5076210;28;20233;-88
2022/04/15 05:10:09;;;;;;;3.80;3.50;;;14.40;99.90;;;;;;5076319;28;20217;-88
2022/04/15 05:12:37;;;;;;;4.13;3.83;;;14.50;99.90;;;;;;5076097;28;20205;-88
2022/04/15 05:15:08;;;;;;;4.70;4.07;;;14.50;99.90;;;;;;5076414;28;20331;-87
2022/04/15 05:17:37;;;;;;;6.28;4.30;;;14.50;99.90;;;;;;5075904;28;20268;-87
2022/04/15 05:20:06;;;;;;;8.98;3.70;;;14.60;99.90;;;;;;5075744;28;20228;-87
2022/04/15 05:22:35;;;;;;;4.53;4.22;;;14.60;99.90;;;;;;5075650;28;20205;-87
2022/04/15 05:25:03;;;;;;;4.15;3.75;;;14.60;99.90;;;;;;5076089;28;20228;-87
2022/04/15 05:27:33;;;;;;;4.97;4.07;;;14.60;99.90;;;;;;5075636;28;20225;-87
2022/04/15 05:30:01;;;;;;;6.82;3.95;;;14.60;99.90;;;;;;5075609;28;20220;-87
2022/04/15 05:32:31;;;;;;;4.65;3.88;;;14.70;99.90;;;;;;5075434;28;20259;-87
2022/04/15 05:34:59;;;;;;;4.13;3.78;;;14.80;99.90;;;;;;5075367;28;20231;-88
2022/04/15 05:37:28;;;;;;;5.85;4.03;;;14.90;99.90;;;;;;5075563;28;20308;-87
2022/04/15 05:39:56;;;;;;;4.25;3.90;;;14.90;99.90;;;;;;5075403;28;20216;-87
2022/04/15 05:42:28;;;;;;;4.32;3.92;;;15.00;99.90;;;;;;5076016;28;20304;-87
2022/04/15 05:44:56;;;;;;;3.63;3.33;;;15.10;99.90;;;;;;5075430;28;20296;-87
2022/04/15 05:47:24;;;;;;;3.42;3.13;;;15.20;99.90;;;;;;5075240;28;20284;-88
2022/04/15 05:49:54;;;;;;;4.03;3.63;;;15.30;99.90;;;;;;5075233;28;20201;-87
2022/04/15 05:52:29;;;;;;;3.75;3.35;;;15.30;99.90;;;;;;5075039;28;20221;-87
2022/04/15 05:54:57;;;;;;;3.65;3.35;;;15.40;99.90;;;;;;5075671;28;20284;-87
2022/04/15 05:57:26;;;;;;;3.13;2.83;;;15.40;99.90;;;;;;5075036;28;20283;-88
2022/04/15 05:59:54;;;;;;;4.03;3.60;;;15.50;99.90;;;;;;5075277;28;20291;-87
2022/04/15 06:02:24;;;;;;;3.80;3.42;;;15.50;99.90;;;;;;5075076;28;20302;-88
2022/04/15 06:04:54;;;;;;;3.85;3.05;;;15.50;99.90;;;;;;5075188;28;20212;-87
2022/04/15 06:07:23;;;;;;;3.78;3.15;;;15.50;99.90;;;;;;5075410;28;20201;-88
2022/04/15 06:09:51;;;;;;;3.83;3.10;;;15.50;99.90;;;;;;5074326;28;20232;-88
2022/04/15 06:12:21;;;;;;;3.60;2.97;;;15.30;99.90;;;;;;5075219;28;20221;-88
2022/04/15 06:14:50;;;;;;;3.33;3.13;;;15.30;99.90;;;;;;5075438;28;20209;-88
2022/04/15 06:17:22;;;;;;;4.30;3.58;;;15.30;99.90;;;;;;5074765;28;20316;-87
2022/04/15 06:19:50;;;;;;;8.43;3.00;;;15.10;99.90;;;;;;5075148;28;20208;-87
2022/04/15 06:22:20;;;;;;;3.00;2.63;;;15.00;99.90;;;;;;5074687;28;20264;-87
2022/04/15 06:24:49;;;;;;;3.00;2.70;;;14.80;99.90;;;;;;5074571;28;20232;-87
2022/04/15 06:27:17;;;;;;;3.13;2.92;;;14.60;99.90;;;;;;5074840;28;20193;-88
2022/04/15 06:29:45;;;;;;;2.78;2.58;;;14.40;99.90;;;;;;5074526;28;20209;-87
2022/04/15 06:32:14;;;;;;;5.38;3.10;;;14.40;99.90;;;;;;5074442;28;20244;-88
2022/04/15 06:34:42;;;;;;;4.47;3.58;;;14.30;99.90;;;;;;5074769;28;20257;-87
2022/04/15 06:37:11;;;;;;;3.40;2.90;;;14.20;99.90;;;;;;5074411;28;20221;-88
2022/04/15 06:39:41;;;;;;;2.85;2.65;;;14.10;99.90;;;;;;5074337;28;20204;-88
2022/04/15 06:42:09;;;;;;;3.65;3.30;;;14.10;99.90;;;;;;5074021;28;20251;-88
2022/04/15 06:44:38;;;;;;;5.07;3.30;;;14.00;99.90;;;;;;5074452;28;20205;-88
2022/04/15 06:47:07;;;;;;;4.30;3.72;;;13.90;99.90;;;;;;5074408;28;20251;-88
2022/04/15 06:49:35;;;;;;;3.78;3.15;;;13.70;99.90;;;;;;5081055;28;20251;-88
2022/04/15 06:52:04;;;;;;;3.63;3.33;;;13.60;99.90;;;;;;5076964;28;20294;-88
2022/04/15 06:54:32;;;;;;;3.22;3.03;;;13.50;99.90;;;;;;5074214;28;20248;-88
2022/04/15 06:57:04;;;;;;;4.95;4.45;;;13.40;99.90;;;;;;5074052;28;20227;-88
2022/04/15 06:59:36;;;;;;;3.95;3.63;;;13.40;99.90;;;;;;5074466;28;20193;-88
2022/04/15 07:02:06;;;;;;;4.85;4.30;;;13.30;99.90;;;;;;5074156;28;20225;-88
2022/04/15 07:04:35;;;;;;;3.92;3.63;;;13.40;99.90;;;;;;5073934;28;20201;-88
2022/04/15 07:07:06;;;;;;;3.20;2.90;;;13.30;99.90;;;;;;5073603;28;20201;-88
2022/04/15 07:09:37;;;;;;;4.15;3.85;;;13.30;99.90;;;;;;5074003;28;20197;-88
2022/04/15 07:12:12;;;;;;;4.03;3.72;;;13.40;99.90;;;;;;5073761;28;20228;-88
2022/04/15 07:14:45;;;;;;;14.13;4.13;;;13.40;99.90;;;;;;5074001;28;20223;-88
2022/04/15 07:17:13;;;;;;;4.00;3.70;;;13.50;99.90;;;;;;5073527;28;20212;-88
2022/04/15 07:19:46;;;;;;;9.00;4.47;;;13.60;99.90;;;;;;5073992;28;20199;-88
2022/04/15 07:22:19;;;;;;;4.80;4.40;;;13.60;99.90;;;;;;5072909;28;20225;-88
2022/04/15 07:24:49;;;;;;;4.72;4.25;;;13.70;99.90;;;;;;5076457;28;20201;-88
2022/04/15 07:27:26;;;;;;;4.32;3.88;;;13.80;99.90;;;;;;5076036;28;20197;-88
2022/04/15 07:29:54;;;;;;;5.93;4.55;;;13.90;99.90;;;;;;5073746;28;20205;-88
2022/04/15 07:32:25;;;;;;;4.97;4.47;;;14.00;99.90;;;;;;5074614;28;20339;-87
2022/04/15 07:34:54;;;;;;;4.30;4.00;;;13.90;99.90;;;;;;5074843;28;20208;-87
2022/04/15 07:37:33;;;;;;;4.95;4.45;;;14.00;99.90;;;;;;5073235;28;20304;-88
2022/04/15 07:40:02;;;;;;;5.53;4.43;;;13.90;99.90;;;;;;5073563;28;20254;-88
2022/04/15 07:42:33;;;;;;;4.85;4.45;;;13.90;99.90;;;;;;5073481;28;20304;-88
2022/04/15 07:45:01;;;;;;;4.75;4.35;;;14.00;99.90;;;;;;5073403;28;20258;-88
2022/04/15 07:47:30;;;;;;;4.57;4.18;;;13.90;99.90;;;;;;5073310;28;20205;-88
2022/04/15 07:50:21;;;;;;;4.93;4.53;;;14.00;99.90;;;;;;5073155;28;20205;-87
2022/04/15 07:52:50;;;;;;;6.10;5.50;;;14.00;99.90;;;;;;5073381;28;20266;-88
2022/04/15 07:55:19;;;;;;;5.15;4.72;;;14.00;99.90;;;;;;5073288;28;20228;-88
2022/04/15 07:57:49;;;;;;;6.25;5.70;;;13.90;99.90;;;;;;5073052;28;20245;-88
2022/04/15 08:00:25;;;;;;;6.50;5.75;;;13.80;99.90;;;;;;5072899;28;20591;-88
2022/04/15 08:02:54;;;;;;;6.25;5.65;;;13.70;99.90;;;;;;5072965;28;20200;-87
2022/04/15 08:05:26;;;;;;;5.65;5.13;;;13.70;99.90;;;;;;5073076;28;20229;-88
2022/04/15 08:07:54;;;;;;;6.80;5.30;;;13.70;99.90;;;;;;5073385;28;20204;-88
2022/04/15 08:10:25;;;;;;;6.57;5.80;;;13.70;99.90;;;;;;5072608;28;20201;-87
2022/04/15 08:13:02;;;;;;;5.00;4.60;;;13.70;99.90;;;;;;5072798;28;20215;-88
2022/04/15 08:15:31;;;;;;;7.25;5.68;;;13.70;99.90;;;;;;5072598;28;20209;-88
2022/04/15 08:18:00;;;;;;;6.20;5.68;;;13.70;99.90;;;;;;5072797;28;20282;-88
2022/04/15 08:20:29;;;;;;;4.93;4.43;;;13.70;99.90;;;;;;5072753;28;20263;-88
2022/04/15 08:22:57;;;;;;;4.72;4.35;;;13.70;99.90;;;;;;5072542;28;20264;-88
2022/04/15 08:25:26;;;;;;;5.32;4.32;;;13.70;99.90;;;;;;5072765;28;20229;-88
2022/04/15 08:27:54;;;;;;;5.85;5.20;;;13.80;99.90;;;;;;5072527;28;20258;-88
2022/04/15 08:30:24;;;;;;;5.88;5.38;;;13.80;99.90;;;;;;5072370;28;20229;-88
2022/04/15 08:32:53;;;;;;;5.88;5.38;;;13.90;99.90;;;;;;5072793;28;20200;-88
2022/04/15 08:35:21;;;;;;;7.35;5.22;;;14.00;99.90;;;;;;5072762;28;20201;-88
2022/04/15 08:37:50;;;;;;;5.13;4.72;;;14.00;99.90;;;;;;5072449;28;20296;-88
2022/04/15 08:40:18;;;;;;;4.97;4.53;;;14.10;99.90;;;;;;5072077;28;20209;-88
2022/04/15 08:42:47;;;;;;;15.50;4.85;;;14.00;99.90;;;;;;5072475;28;20282;-88
2022/04/15 08:45:16;;;;;;;4.65;4.25;;;14.00;99.90;;;;;;5072882;28;20224;-88
2022/04/15 08:47:47;;;;;;;5.95;4.93;;;14.10;99.90;;;;;;5072529;28;20231;-88
2022/04/15 08:50:15;;;;;;;7.25;5.35;;;14.10;99.90;;;;;;5072189;28;20242;-87
2022/04/15 08:52:46;;;;;;;4.82;4.43;;;14.20;99.90;;;;;;5072271;28;20288;-87
2022/04/15 08:55:14;;;;;;;5.88;5.28;;;14.10;99.90;;;;;;5072172;28;20208;-87
2022/04/15 08:57:43;;;;;;;5.63;5.03;;;14.10;99.90;;;;;;5072464;28;20232;-87
2022/04/15 09:00:12;;;;;;;6.15;5.55;;;14.10;99.90;;;;;;5072233;28;20265;-87
2022/04/15 09:02:41;;;;;;;8.90;6.47;;;14.10;99.90;;;;;;5072577;28;20204;-88
2022/04/15 09:05:13;;;;;;;8.75;6.88;;;14.00;99.90;;;;;;5072141;28;20209;-88
2022/04/15 09:07:42;;;;;;;7.85;7.15;;;14.00;99.90;;;;;;5072277;28;20205;-88
2022/04/15 09:10:11;;;;;;;7.60;6.90;;;14.00;99.90;;;;;;5072365;28;20254;-88
2022/04/15 09:12:41;;;;;;;7.10;6.47;;;14.20;99.90;;;;;;5072309;28;20201;-88
2022/04/15 09:15:12;;;;;;;24.25;7.30;;;14.30;99.90;;;;;;5072089;28;20212;-88
2022/04/15 09:17:46;;;;;;;7.65;6.50;;;14.40;99.90;;;;;;5071932;28;20233;-87
2022/04/15 09:20:17;;;;;;;7.97;6.03;;;14.50;99.90;;;;;;5071643;28;20207;-88
2022/04/15 09:22:46;;;;;;;6.85;6.25;;;14.60;99.90;;;;;;5072345;28;20216;-87
2022/04/15 09:25:15;;;;;;;7.68;6.97;;;14.70;99.90;;;;;;5072503;28;20205;-87
2022/04/15 09:27:43;;;;;;;6.95;6.35;;;14.90;99.90;;;;;;5072093;28;20197;-87
2022/04/15 09:30:12;;;;;;;6.25;5.75;;;15.10;99.90;;;;;;5071542;28;20259;-88
2022/04/15 09:32:41;;;;;;;6.70;6.15;;;15.30;99.90;;;;;;5071938;28;20296;-88
2022/04/15 09:35:11;;;;;;;5.57;5.05;;;15.50;99.90;;;;;;5071769;28;20209;-88
2022/04/15 09:37:43;;;;;;;6.80;5.30;;;15.60;99.90;;;;;;5072258;28;20241;-88
2022/04/15 09:40:14;;;;;;;4.57;4.18;;;15.80;99.90;;;;;;5071854;28;20205;-87
2022/04/15 09:42:47;;;;;;;4.53;4.13;;;16.00;99.90;;;;;;5071979;28;20296;-88
2022/04/15 09:45:18;;;;;;;5.28;4.72;;;16.30;99.90;;;;;;5073580;28;20299;-88
2022/04/15 09:47:52;;;;;;;6.63;4.60;;;16.90;99.90;;;;;;5075076;28;20299;-88
2022/04/15 09:50:26;;;;;;;3.50;3.25;;;17.50;99.90;;;;;;5075362;28;20205;-88
2022/04/15 09:53:07;;;;;;;3.72;2.92;;;18.30;99.90;;;;;;5075834;28;20205;-87
2022/04/15 09:55:39;;;;;;;3.40;3.10;;;18.60;99.90;;;;;;5075139;28;20208;-87
2022/04/15 09:58:13;;;;;;;3.58;3.28;;;19.20;99.90;;;;;;5075188;28;20225;-87
2022/04/15 10:00:43;;;;;;;3.58;3.28;;;19.80;99.90;;;;;;5075073;28;20253;-88
2022/04/15 10:03:18;;;;;;;2.58;2.38;;;19.80;99.90;;;;;;5075480;28;20239;-87
2022/04/15 10:05:47;;;;;;;3.92;3.50;;;19.90;99.90;;;;;;5074948;28;20220;-87
2022/04/15 10:08:20;;;;;;;3.45;2.83;;;19.80;99.90;;;;;;5075011;28;20212;-87
2022/04/15 10:10:49;;;;;;;5.22;2.70;;;19.30;99.90;;;;;;5074985;28;20244;-87
2022/04/15 10:13:20;;;;;;;3.47;2.10;;;18.90;99.90;;;;;;5074841;28;20205;-88
2022/04/15 10:15:49;;;;;;;2.67;2.47;;;19.30;99.90;;;;;;5075039;28;20205;-87
2022/04/15 10:18:20;;;;;;;3.10;2.80;;;20.10;99.90;;;;;;5074780;28;20217;-87
2022/04/15 10:20:48;;;;;;;2.58;2.38;;;21.00;99.90;;;;;;5074647;28;20274;-87
2022/04/15 10:23:21;;;;;;;2.35;2.15;;;21.60;99.90;;;;;;5075125;28;20205;-87
2022/04/15 10:25:52;;;;;;;2.95;2.17;;;22.00;99.90;;;;;;5074648;28;20205;-87
2022/04/15 10:28:37;;;;;;;5.63;3.15;;;22.30;99.50;;;;;;5074904;28;20262;-87
2022/04/15 10:31:08;;;;;;;3.88;3.00;;;22.80;99.90;;;;;;5074461;28;20289;-87
2022/04/15 10:33:39;;;;;;;3.35;2.80;;;23.20;98.80;;;;;;5074945;28;20207;-87
2022/04/15 10:36:16;;;;;;;3.85;2.65;;;23.10;96.00;;;;;;5074489;28;20201;-86
2022/04/15 10:39:14;;;;;;;2.40;2.20;;;23.70;96.20;;;;;;5074271;28;20248;-87
2022/04/15 10:42:04;;;;;;;2.40;2.20;;;24.00;92.50;;;;;;5074535;28;20300;-86
2022/04/15 10:44:39;;;;;;;1.92;1.83;;;23.50;92.00;;;;;;5074694;28;20292;-87
2022/04/15 10:47:13;;;;;;;2.58;2.28;;;24.00;92.30;;;;;;5074500;28;20209;-87
2022/04/15 10:49:54;;;;;;;2.97;2.30;;;24.00;90.80;;;;;;5074074;28;20209;-87
2022/04/15 10:52:26;;;;;;;2.35;1.95;;;24.50;89.00;;;;;;5074266;28;20251;-88
2022/04/15 10:54:59;;;;;;;4.13;2.97;;;24.70;86.70;;;;;;5074086;28;20205;-87
2022/04/15 10:57:35;;;;;;;2.67;2.35;;;24.20;84.90;;;;;;5074560;28;20209;-88
2022/04/15 11:02:58;;;;;;;2.95;2.70;;;24.10;87.80;;;;;;5074150;28;20204;-88
2022/04/15 11:05:36;;;;;;;3.42;3.13;;;23.90;87.20;;;;;;5073814;28;20286;-88
2022/04/15 11:08:11;;;;;;;2.50;2.30;;;24.10;87.40;;;;;;5073931;28;20200;-87
2022/04/15 11:10:59;;;;;;;3.13;2.83;;;24.70;87.50;;;;;;5073768;28;20311;-87
2022/04/15 11:13:32;;;;;;;3.90;3.30;;;24.90;86.80;;;;;;5074279;28;20225;-87
2022/04/15 11:16:02;;;;;;;3.30;3.00;;;25.20;84.90;;;;;;5073683;28;20251;-87
2022/04/15 11:18:50;;;;;;;3.42;3.00;;;25.40;85.00;;;;;;5073550;28;20266;-87
2022/04/15 11:21:27;;;;;;;3.83;3.15;;;25.50;85.30;;;;;;5073779;28;20303;-88
2022/04/15 11:23:57;;;;;;;3.80;3.33;;;25.80;81.90;;;;;;5073942;28;20232;-88
2022/04/15 11:26:30;;;;;;;3.63;3.33;;;26.00;80.70;;;;;;5074088;28;20213;-88
2022/04/15 11:29:00;;;;;;;3.30;3.00;;;26.00;82.00;;;;;;5073269;28;20227;-88
2022/04/15 11:31:29;;;;;;;4.05;3.72;;;26.20;81.70;;;;;;5073126;28;20332;-88
2022/04/15 11:34:04;;;;;;;3.80;3.50;;;26.10;79.90;;;;;;5073318;28;20275;-88
2022/04/15 11:36:35;;;;;;;3.78;3.47;;;25.90;80.80;;;;;;5073429;28;20243;-88
2022/04/15 11:39:05;;;;;;;4.10;3.22;;;25.60;81.40;;;;;;5073336;28;20221;-88
2022/04/15 11:41:36;;;;;;;5.75;4.53;;;25.70;84.10;;;;;;5072795;28;20225;-87
2022/04/15 11:44:06;;;;;;;6.45;3.83;;;25.70;80.90;;;;;;5073140;28;20221;-87
2022/04/15 11:46:42;;;;;;;5.70;3.58;;;25.90;81.00;;;;;;5073099;28;20291;-87
2022/04/15 11:49:15;;;;;;;4.57;4.15;;;25.80;80.90;;;;;;5073183;28;20204;-88
2022/04/15 11:51:51;;;;;;;4.53;4.13;;;25.20;78.20;;;;;;5073030;28;20244;-88
2022/04/15 11:54:22;;;;;;;4.30;3.90;;;24.80;80.10;;;;;;5073035;28;20239;-87
2022/04/15 11:56:55;;;;;;;3.75;3.45;;;24.50;81.20;;;;;;5073181;28;20197;-87
2022/04/15 11:59:24;;;;;;;4.57;3.75;;;24.10;84.90;;;;;;5073033;28;20262;-87
2022/04/15 12:01:53;;;;;;;3.42;3.13;;;24.10;84.30;;;;;;5073264;28;20221;-86
2022/04/15 12:04:22;;;;;;;4.88;3.63;;;24.10;86.10;;;;;;5073051;28;20229;-87
2022/04/15 12:06:51;;;;;;;4.75;3.58;;;24.50;83.50;;;;;;5072836;28;20212;-88
2022/04/15 12:09:19;;;;;;;4.38;3.85;;;24.40;82.60;;;;;;5072707;28;20219;-87
2022/04/15 12:12:08;;;;;;;3.55;3.20;;;24.30;83.40;;;;;;5072654;28;20232;-87
2022/04/15 12:14:38;;;;;;;3.92;2.92;;;24.10;83.00;;;;;;5072677;28;20272;-87
2022/04/15 12:17:08;;;;;;;4.22;3.83;;;24.00;81.90;;;;;;5072673;28;20209;-87
2022/04/15 12:19:37;;;;;;;3.38;3.08;;;24.10;81.30;;;;;;5072706;28;20278;-87
2022/04/15 12:22:07;;;;;;;6.95;4.07;;;24.30;83.80;;;;;;5072416;28;20229;-87
2022/04/15 12:24:36;;;;;;;4.32;3.47;;;24.40;81.50;;;;;;5072780;28;20209;-87
2022/04/15 12:27:06;;;;;;;4.55;4.00;;;24.30;83.30;;;;;;5072963;28;20233;-87
2022/04/15 12:29:51;;;;;;;4.40;3.20;;;24.40;81.20;;;;;;5072456;28;20225;-86
2022/04/15 12:32:25;;;;;;;5.57;3.65;;;24.20;80.80;;;;;;5072436;28;20241;-87
2022/04/15 12:35:11;;;;;;;4.07;3.70;;;24.70;79.90;;;;;;5073085;28;20220;-86
2022/04/15 12:37:44;;;;;;;3.83;3.25;;;24.50;80.20;;;;;;5072242;28;20197;-87
2022/04/15 12:40:30;;;;;;;3.95;3.10;;;24.60;81.20;;;;;;5071941;28;20224;-87
2022/04/15 12:43:11;;;;;;;3.75;3.45;;;25.00;80.90;;;;;;5072541;28;20204;-87
2022/04/15 12:45:50;;;;;;;4.45;4.05;;;24.90;80.00;;;;;;5072460;28;20205;-87
2022/04/15 12:48:19;;;;;;;11.20;4.72;;;24.80;79.70;;;;;;5072516;28;20208;-87
2022/04/15 12:50:48;;;;;;;3.88;3.58;;;24.60;80.30;;;;;;5072282;28;20256;-87
2022/04/15 12:53:18;;;;;;;8.35;3.63;;;24.90;80.10;;;;;;5072435;28;20295;-87
2022/04/15 12:55:47;;;;;;;3.83;3.53;;;25.30;81.30;;;;;;5072769;28;20240;-87
2022/04/15 12:58:22;;;;;;;4.25;3.85;;;25.50;78.90;;;;;;5072543;28;20300;-87
2022/04/15 13:00:53;;;;;;;3.63;3.28;;;25.00;79.90;;;;;;5071843;28;20263;-88
2022/04/15 13:03:22;;;;;;;6.38;4.95;;;24.10;83.30;;;;;;5072466;28;20204;-88
2022/04/15 13:05:52;;;;;;;7.35;3.63;;;23.50;98.10;;;;;;5072552;28;20235;-88